createdAt,value
2023-03-29T00:01:41.943Z,8.10
2023-03-29T00:04:10.192Z,8.17
2023-03-29T00:06:36.998Z,8.20
2023-03-29T00:09:05.677Z,8.20
2023-03-29T00:11:32.492Z,8.21
2023-03-29T00:13:58.944Z,8.04
2023-03-29T00:16:25.394Z,8.02
2023-03-29T00:18:51.872Z,7.92
2023-03-29T00:21:18.286Z,7.89
2023-03-29T00:23:44.792Z,7.92
2023-03-29T00:26:11.681Z,7.85
2023-03-29T00:28:38.088Z,7.72
2023-03-29T00:31:11.138Z,7.74
2023-03-29T00:33:38.077Z,7.80
2023-03-29T00:36:06.055Z,7.70
2023-03-29T00:38:33.212Z,7.72
2023-03-29T00:41:00.081Z,7.82
2023-03-29T00:43:26.980Z,7.92
2023-03-29T00:45:53.545Z,7.72
2023-03-29T00:48:24.405Z,7.56
2023-03-29T00:50:56.221Z,7.47
2023-03-29T00:53:53.080Z,7.55
2023-03-29T00:56:31.363Z,7.66
2023-03-29T00:59:09.958Z,7.79
2023-03-29T01:02:05.350Z,7.83
2023-03-29T01:04:37.569Z,7.72
2023-03-29T01:07:21.341Z,7.67
2023-03-29T01:09:55.445Z,7.52
2023-03-29T01:12:32.762Z,7.35
2023-03-29T01:15:04.875Z,7.36
2023-03-29T01:17:31.721Z,7.24
2023-03-29T01:20:50.818Z,7.24
2023-03-29T01:23:38.063Z,7.22
2023-03-29T01:26:10.199Z,7.18
2023-03-29T01:28:45.423Z,7.18
2023-03-29T01:31:19.503Z,7.29
2023-03-29T01:33:50.925Z,7.12
2023-03-29T01:36:20.624Z,7.03
2023-03-29T01:38:57.003Z,7.01
2023-03-29T01:41:34.118Z,7.19
2023-03-29T01:44:09.939Z,7.37
2023-03-29T01:46:55.480Z,7.43
2023-03-29T01:49:47.921Z,7.29
2023-03-29T01:52:18.664Z,7.15
2023-03-29T01:54:54.819Z,7.07
2023-03-29T01:57:24.922Z,7.05
2023-03-29T01:59:53.716Z,7.00
2023-03-29T02:02:21.578Z,7.05
2023-03-29T02:04:53.682Z,6.99
2023-03-29T02:07:25.065Z,6.86
2023-03-29T02:09:53.633Z,6.87
2023-03-29T02:12:20.882Z,6.70
2023-03-29T02:14:47.415Z,6.64
2023-03-29T02:17:28.010Z,6.72
2023-03-29T02:20:14.502Z,6.69
2023-03-29T02:23:02.090Z,6.60
2023-03-29T02:25:29.506Z,6.49
2023-03-29T02:27:56.805Z,6.58
2023-03-29T02:30:27.233Z,6.60
2023-03-29T02:33:14.006Z,6.62
2023-03-29T02:35:53.287Z,6.53
2023-03-29T02:38:21.195Z,6.34
2023-03-29T02:40:48.002Z,6.29
2023-03-29T02:43:16.607Z,6.31
2023-03-29T02:45:44.810Z,6.51
2023-03-29T02:48:17.931Z,6.43
2023-03-29T02:50:48.349Z,6.45
2023-03-29T02:53:29.895Z,6.41
2023-03-29T02:55:56.448Z,6.24
2023-03-29T02:58:26.504Z,6.18
2023-03-29T03:00:53.486Z,6.40
2023-03-29T03:03:20.752Z,6.44
2023-03-29T03:05:47.897Z,6.26
2023-03-29T03:08:14.528Z,5.94
2023-03-29T03:10:41.090Z,5.78
2023-03-29T03:13:07.544Z,5.71
2023-03-29T03:15:37.347Z,5.66
2023-03-29T03:18:04.179Z,5.58
2023-03-29T03:20:31.242Z,5.45
2023-03-29T03:22:58.408Z,5.34
2023-03-29T03:25:24.873Z,5.39
2023-03-29T03:27:51.614Z,5.63
2023-03-29T03:30:18.466Z,5.55
2023-03-29T03:32:44.961Z,5.63
2023-03-29T03:35:11.748Z,5.79
2023-03-29T03:37:39.180Z,5.68
2023-03-29T03:40:07.101Z,5.63
2023-03-29T03:42:33.585Z,5.64
2023-03-29T03:44:59.983Z,5.70
2023-03-29T03:47:26.422Z,5.46
2023-03-29T03:49:52.908Z,5.38
2023-03-29T03:52:19.393Z,5.32
2023-03-29T03:54:46.651Z,5.13
2023-03-29T03:57:13.196Z,4.99
2023-03-29T03:59:39.652Z,4.80
2023-03-29T04:02:06.807Z,4.71
2023-03-29T04:04:33.441Z,4.67
2023-03-29T04:07:02.721Z,4.65
2023-03-29T04:09:33.359Z,4.63
2023-03-29T04:12:01.521Z,4.74
2023-03-29T04:14:28.322Z,4.81
2023-03-29T04:16:55.331Z,4.89
2023-03-29T04:19:22.000Z,5.08
2023-03-29T04:21:49.554Z,5.22
2023-03-29T04:24:17.122Z,5.34
2023-03-29T04:26:43.918Z,5.52
2023-03-29T04:29:10.928Z,5.53
2023-03-29T04:31:37.574Z,5.49
2023-03-29T04:34:04.443Z,5.54
2023-03-29T04:36:30.949Z,5.37
2023-03-29T04:38:58.520Z,5.29
2023-03-29T04:41:25.003Z,5.23
2023-03-29T04:43:52.094Z,5.20
2023-03-29T04:46:18.744Z,5.14
2023-03-29T04:48:45.375Z,5.16
2023-03-29T04:51:12.775Z,5.20
2023-03-29T04:53:39.253Z,5.32
2023-03-29T04:56:06.641Z,5.44
2023-03-29T04:58:33.628Z,5.37
2023-03-29T05:01:00.257Z,5.28
2023-03-29T05:03:27.105Z,5.16
2023-03-29T05:05:54.053Z,5.18
2023-03-29T05:08:20.739Z,5.31
2023-03-29T05:10:49.807Z,5.18
2023-03-29T05:13:16.804Z,5.09
2023-03-29T05:15:43.720Z,5.12
2023-03-29T05:18:10.726Z,5.18
2023-03-29T05:20:38.086Z,5.15
2023-03-29T05:23:04.671Z,5.12
2023-03-29T05:25:31.161Z,5.17
2023-03-29T05:27:58.076Z,5.16
2023-03-29T05:30:24.792Z,5.22
2023-03-29T05:32:51.704Z,5.33
2023-03-29T05:35:18.480Z,5.35
2023-03-29T05:37:47.435Z,5.42
2023-03-29T05:40:14.356Z,5.45
2023-03-29T05:42:44.346Z,5.57
2023-03-29T05:45:11.530Z,5.70
2023-03-29T05:47:38.273Z,5.76
2023-03-29T05:50:08.994Z,5.82
2023-03-29T05:52:36.603Z,5.94
2023-03-29T05:55:07.373Z,6.07
2023-03-29T05:57:37.857Z,6.21
2023-03-29T06:00:26.378Z,6.30
2023-03-29T06:02:53.630Z,6.24
2023-03-29T06:05:23.890Z,6.34
2023-03-29T06:07:54.278Z,6.38
2023-03-29T06:10:20.997Z,6.42
2023-03-29T06:12:47.790Z,6.51
2023-03-29T06:15:14.915Z,6.70
2023-03-29T06:17:43.932Z,6.93
2023-03-29T06:20:11.826Z,7.09
2023-03-29T06:22:39.330Z,7.28
2023-03-29T06:25:07.340Z,7.43
2023-03-29T06:27:34.179Z,7.54
2023-03-29T06:30:01.649Z,7.64
2023-03-29T06:32:28.473Z,7.68
2023-03-29T06:34:55.663Z,7.74
2023-03-29T06:37:25.065Z,7.79
2023-03-29T06:39:54.693Z,7.82
2023-03-29T06:42:21.916Z,7.92
2023-03-29T06:44:49.741Z,7.99
2023-03-29T06:47:17.336Z,8.09
2023-03-29T06:49:43.978Z,8.22
2023-03-29T06:52:11.388Z,8.27
2023-03-29T06:54:39.070Z,8.32
2023-03-29T06:57:06.246Z,8.14
2023-03-29T06:59:35.130Z,8.22
2023-03-29T07:02:02.882Z,8.33
2023-03-29T07:04:32.913Z,8.45
2023-03-29T07:07:03.778Z,8.50
2023-03-29T07:09:32.225Z,8.61
2023-03-29T07:12:00.674Z,8.79
2023-03-29T07:14:30.304Z,8.85
2023-03-29T07:17:01.493Z,9.09
2023-03-29T07:19:30.997Z,9.28
2023-03-29T07:21:59.099Z,9.51
2023-03-29T07:24:26.798Z,9.68
2023-03-29T07:27:03.118Z,9.83
2023-03-29T07:29:32.390Z,10.06
2023-03-29T07:32:05.216Z,10.13
2023-03-29T07:34:35.033Z,10.21
2023-03-29T07:37:02.477Z,10.23
2023-03-29T07:39:32.020Z,10.29
2023-03-29T07:41:59.999Z,10.44
2023-03-29T07:44:30.514Z,10.63
2023-03-29T07:47:00.150Z,10.75
2023-03-29T07:49:26.797Z,10.90
2023-03-29T07:51:55.019Z,10.89
2023-03-29T07:54:21.785Z,10.73
2023-03-29T07:56:48.341Z,10.82
2023-03-29T07:59:15.542Z,10.91
2023-03-29T08:01:42.340Z,11.00
2023-03-29T08:04:09.893Z,11.20
2023-03-29T08:06:37.488Z,11.28
2023-03-29T08:09:04.126Z,11.38
2023-03-29T08:11:30.743Z,11.54
2023-03-29T08:13:59.063Z,11.66
2023-03-29T08:16:26.399Z,11.65
2023-03-29T08:18:52.892Z,11.78
2023-03-29T08:21:19.514Z,11.72
2023-03-29T08:23:46.065Z,11.63
2023-03-29T08:26:12.906Z,11.67
2023-03-29T08:28:39.471Z,11.73
2023-03-29T08:31:07.763Z,11.85
2023-03-29T08:33:34.219Z,11.90
2023-03-29T08:36:01.066Z,12.02
2023-03-29T08:38:29.301Z,12.11
2023-03-29T08:40:59.301Z,12.14
2023-03-29T08:43:53.437Z,12.08
2023-03-29T08:47:01.756Z,12.16
2023-03-29T08:49:29.814Z,12.32
2023-03-29T08:52:01.125Z,12.46
2023-03-29T08:54:48.216Z,12.54
2023-03-29T08:57:29.649Z,12.52
2023-03-29T08:59:58.385Z,12.64
2023-03-29T09:02:28.213Z,12.49
2023-03-29T09:05:01.013Z,12.53
2023-03-29T09:07:28.033Z,12.75
2023-03-29T09:09:54.708Z,12.92
2023-03-29T09:12:52.922Z,12.91
2023-03-29T09:15:27.684Z,12.92
2023-03-29T09:18:25.707Z,12.90
2023-03-29T09:21:16.253Z,12.87
2023-03-29T09:23:55.875Z,12.93
2023-03-29T09:26:46.417Z,13.24
2023-03-29T09:29:29.344Z,13.41
2023-03-29T09:32:03.394Z,13.43
2023-03-29T09:34:36.433Z,13.57
2023-03-29T09:37:08.420Z,13.69
2023-03-29T09:39:38.056Z,13.79
2023-03-29T09:42:09.143Z,13.78
2023-03-29T09:44:47.247Z,13.87
2023-03-29T09:47:14.048Z,14.13
2023-03-29T09:49:47.400Z,14.39
2023-03-29T09:52:16.876Z,14.64
2023-03-29T09:54:47.400Z,14.73
2023-03-29T09:57:17.736Z,14.89
2023-03-29T09:59:47.386Z,14.89
2023-03-29T10:02:14.721Z,14.82
2023-03-29T10:04:42.916Z,14.84
2023-03-29T10:07:18.136Z,14.93
2023-03-29T10:09:45.928Z,14.93
2023-03-29T10:12:13.875Z,14.98
2023-03-29T10:14:45.952Z,14.99
2023-03-29T10:17:21.710Z,14.89
2023-03-29T10:20:04.506Z,15.00
2023-03-29T10:22:37.726Z,15.05
2023-03-29T10:25:12.992Z,14.94
2023-03-29T10:27:42.387Z,15.04
2023-03-29T10:30:13.026Z,15.17
2023-03-29T10:32:40.395Z,15.39
2023-03-29T10:35:21.602Z,15.49
2023-03-29T10:37:58.499Z,15.37
2023-03-29T10:40:32.661Z,15.51
2023-03-29T10:43:32.414Z,15.52
2023-03-29T10:46:13.442Z,15.54
2023-03-29T10:48:46.533Z,15.66
2023-03-29T10:51:14.863Z,15.62
2023-03-29T10:53:41.539Z,15.62
2023-03-29T10:56:24.394Z,15.60
2023-03-29T10:59:36.032Z,15.68
2023-03-29T11:02:02.538Z,15.67
2023-03-29T11:04:48.016Z,15.84
2023-03-29T11:07:37.845Z,15.99
2023-03-29T11:10:16.970Z,15.82
2023-03-29T11:12:53.016Z,16.04
2023-03-29T11:15:38.321Z,16.17
2023-03-29T11:18:27.269Z,16.07
2023-03-29T11:21:18.205Z,15.88
2023-03-29T11:24:22.099Z,16.15
2023-03-29T11:27:12.922Z,16.25
2023-03-29T11:29:58.712Z,16.18
2023-03-29T11:32:33.756Z,16.34
2023-03-29T11:35:18.987Z,16.49
2023-03-29T11:38:11.066Z,16.39
2023-03-29T11:40:46.593Z,16.46
2023-03-29T11:43:20.829Z,16.66
2023-03-29T11:45:55.995Z,16.67
2023-03-29T11:48:30.926Z,16.82
2023-03-29T11:51:20.912Z,16.73
2023-03-29T11:54:13.849Z,16.88
2023-03-29T11:57:02.526Z,17.04
2023-03-29T11:59:45.285Z,17.12
2023-03-29T12:02:17.209Z,17.41
2023-03-29T12:04:51.577Z,17.30
2023-03-29T12:07:36.226Z,17.31
2023-03-29T12:10:08.429Z,17.28
2023-03-29T12:13:05.950Z,17.20
2023-03-29T12:15:41.232Z,17.18
2023-03-29T12:18:33.059Z,17.15
2023-03-29T12:21:02.501Z,17.16
2023-03-29T12:23:35.444Z,16.93
2023-03-29T12:26:20.404Z,16.68
2023-03-29T12:29:14.830Z,16.68
2023-03-29T12:31:53.336Z,16.83
2023-03-29T12:34:44.914Z,16.98
2023-03-29T12:37:23.452Z,17.04
2023-03-29T12:40:28.346Z,17.10
2023-03-29T12:43:07.871Z,17.27
2023-03-29T12:45:40.239Z,17.27
2023-03-29T12:48:14.779Z,17.25
2023-03-29T12:50:47.169Z,17.33
2023-03-29T12:53:26.743Z,17.50
2023-03-29T12:56:02.817Z,17.40
2023-03-29T12:58:39.462Z,17.00
2023-03-29T13:01:08.577Z,17.08
2023-03-29T13:03:42.487Z,17.34
2023-03-29T13:06:11.291Z,17.33
2023-03-29T13:08:40.209Z,17.32
2023-03-29T13:11:26.286Z,17.68
2023-03-29T13:13:53.641Z,17.69
2023-03-29T13:16:30.437Z,17.68
2023-03-29T13:19:24.948Z,17.67
2023-03-29T13:22:29.398Z,17.64
2023-03-29T13:25:25.816Z,17.47
2023-03-29T13:28:27.533Z,17.39
2023-03-29T13:30:59.387Z,17.37
2023-03-29T13:33:47.252Z,17.59
2023-03-29T13:36:34.790Z,17.51
2023-03-29T13:39:10.139Z,17.49
2023-03-29T13:41:40.086Z,17.61
2023-03-29T13:44:25.081Z,17.83
2023-03-29T13:47:13.942Z,17.82
2023-03-29T13:49:45.388Z,17.80
2023-03-29T13:52:33.187Z,17.77
2023-03-29T13:55:06.098Z,17.94
2023-03-29T13:57:42.268Z,17.92
2023-03-29T14:00:48.210Z,17.79
2023-03-29T14:03:17.528Z,17.62
2023-03-29T14:08:40.503Z,17.65
2023-03-29T14:11:12.558Z,17.87
2023-03-29T14:13:39.450Z,17.96
2023-03-29T14:16:32.335Z,18.00
2023-03-29T14:18:59.760Z,17.93
2023-03-29T14:21:26.526Z,17.81
2023-03-29T14:24:00.130Z,17.68
2023-03-29T14:26:31.790Z,17.71
2023-03-29T14:29:01.227Z,17.76
2023-03-29T14:31:33.344Z,17.82
2023-03-29T14:34:02.354Z,17.81
2023-03-29T14:36:31.142Z,17.93
2023-03-29T14:39:16.495Z,17.83
2023-03-29T14:41:50.029Z,17.67
2023-03-29T14:44:19.305Z,17.62
2023-03-29T14:46:47.020Z,17.69
2023-03-29T14:49:16.847Z,17.78
2023-03-29T14:51:45.495Z,17.68
2023-03-29T14:54:24.153Z,17.65
2023-03-29T14:56:51.635Z,17.70
2023-03-29T14:59:29.492Z,17.71
2023-03-29T15:01:56.409Z,17.73
2023-03-29T15:04:23.646Z,17.69
2023-03-29T15:06:52.375Z,17.69
2023-03-29T15:09:29.026Z,17.66
2023-03-29T15:11:58.767Z,17.74
2023-03-29T15:14:28.059Z,17.78
2023-03-29T15:17:03.569Z,17.71
2023-03-29T15:19:31.475Z,17.67
2023-03-29T15:22:05.382Z,17.65
2023-03-29T15:24:33.820Z,17.61
2023-03-29T15:27:11.335Z,17.62
2023-03-29T15:29:42.840Z,17.66
2023-03-29T15:32:19.874Z,17.61
2023-03-29T15:34:46.296Z,17.61
2023-03-29T15:37:13.064Z,17.50
2023-03-29T15:39:44.098Z,17.46
2023-03-29T15:42:11.024Z,17.49
2023-03-29T15:44:38.749Z,17.44
2023-03-29T15:47:12.123Z,17.42
2023-03-29T15:49:38.825Z,17.43
2023-03-29T15:52:05.768Z,17.47
2023-03-29T15:54:33.691Z,17.42
2023-03-29T15:57:07.161Z,17.40
2023-03-29T15:59:34.505Z,17.43
2023-03-29T16:02:01.049Z,17.41
2023-03-29T16:04:27.518Z,17.32
2023-03-29T16:06:55.327Z,17.27
2023-03-29T16:09:22.551Z,17.24
2023-03-29T16:11:50.258Z,17.24
2023-03-29T16:14:25.358Z,17.22
2023-03-29T16:16:52.963Z,17.22
2023-03-29T16:19:19.570Z,17.16
2023-03-29T16:21:46.106Z,17.09
2023-03-29T16:24:21.492Z,16.98
2023-03-29T16:26:48.720Z,16.92
2023-03-29T16:29:17.288Z,16.87
2023-03-29T16:31:48.590Z,16.83
2023-03-29T16:34:18.718Z,16.77
2023-03-29T16:36:47.518Z,16.76
2023-03-29T16:39:13.991Z,16.72
2023-03-29T16:41:41.852Z,16.68
2023-03-29T16:44:13.909Z,16.65
2023-03-29T16:46:40.446Z,16.59
2023-03-29T16:49:07.795Z,16.55
2023-03-29T16:51:34.270Z,16.47
2023-03-29T16:54:00.724Z,16.38
2023-03-29T16:56:28.334Z,16.33
2023-03-29T16:58:54.894Z,16.30
2023-03-29T17:01:22.653Z,16.25
2023-03-29T17:03:49.155Z,16.16
2023-03-29T17:06:15.691Z,16.02
2023-03-29T17:08:42.842Z,15.90
2023-03-29T17:11:09.517Z,15.82
2023-03-29T17:13:37.340Z,15.81
2023-03-29T17:16:04.588Z,15.80
2023-03-29T17:18:31.280Z,15.78
2023-03-29T17:20:58.860Z,15.72
2023-03-29T17:23:25.976Z,15.70
2023-03-29T17:25:54.733Z,15.63
2023-03-29T17:28:21.565Z,15.56
2023-03-29T17:30:48.274Z,15.50
2023-03-29T17:33:14.946Z,15.44
2023-03-29T17:35:43.527Z,15.32
2023-03-29T17:38:11.324Z,15.23
2023-03-29T17:40:37.871Z,15.15
2023-03-29T17:43:04.416Z,15.10
2023-03-29T17:45:32.107Z,15.04
2023-03-29T17:47:58.740Z,14.98
2023-03-29T17:50:25.255Z,14.95
2023-03-29T17:52:51.807Z,14.87
2023-03-29T17:55:18.679Z,14.81
2023-03-29T17:57:45.167Z,14.77
2023-03-29T18:00:13.619Z,14.68
2023-03-29T18:02:41.024Z,14.62
2023-03-29T18:05:09.337Z,14.53
2023-03-29T18:07:36.480Z,14.44
2023-03-29T18:10:03.478Z,14.38
2023-03-29T18:12:29.979Z,14.32
2023-03-29T18:14:56.951Z,14.29
2023-03-29T18:17:24.363Z,14.34
2023-03-29T18:19:51.435Z,14.31
2023-03-29T18:22:18.585Z,14.25
2023-03-29T18:24:46.382Z,14.19
2023-03-29T18:27:13.115Z,14.20
2023-03-29T18:29:39.539Z,14.16
2023-03-29T18:32:06.105Z,14.10
2023-03-29T18:34:33.323Z,14.07
2023-03-29T18:36:59.800Z,14.02
2023-03-29T18:39:27.258Z,13.94
2023-03-29T18:41:53.715Z,13.83
2023-03-29T18:44:21.810Z,13.80
2023-03-29T18:46:48.343Z,13.82
2023-03-29T18:49:14.786Z,13.86
2023-03-29T18:51:42.115Z,13.89
2023-03-29T18:54:08.997Z,13.83
2023-03-29T18:56:35.885Z,13.82
2023-03-29T18:59:06.099Z,13.81
2023-03-29T19:01:33.249Z,13.84
2023-03-29T19:03:59.771Z,13.91
2023-03-29T19:06:26.466Z,13.91
2023-03-29T19:08:53.992Z,13.85
2023-03-29T19:11:20.481Z,13.79
2023-03-29T19:13:50.109Z,13.80
2023-03-29T19:16:17.111Z,13.85
2023-03-29T19:18:43.878Z,13.86
2023-03-29T19:21:10.594Z,13.88
2023-03-29T19:23:37.284Z,13.79
2023-03-29T19:26:05.781Z,13.80
2023-03-29T19:28:33.530Z,13.84
2023-03-29T19:31:01.725Z,13.76
2023-03-29T19:33:29.259Z,13.68
2023-03-29T19:35:56.337Z,13.66
2023-03-29T19:38:22.877Z,13.60
2023-03-29T19:40:51.499Z,13.65
2023-03-29T19:43:18.707Z,13.65
2023-03-29T19:45:49.951Z,13.62
2023-03-29T19:48:22.357Z,13.59
2023-03-29T19:50:49.423Z,13.57
2023-03-29T19:53:15.986Z,13.43
2023-03-29T19:55:44.147Z,13.40
2023-03-29T19:58:10.639Z,13.36
2023-03-29T20:00:38.757Z,13.30
2023-03-29T20:03:09.111Z,13.24
2023-03-29T20:05:37.104Z,13.23
2023-03-29T20:08:04.087Z,13.22
2023-03-29T20:10:30.947Z,13.16
2023-03-29T20:12:57.393Z,13.16
2023-03-29T20:15:27.218Z,13.16
2023-03-29T20:17:58.524Z,13.14
2023-03-29T20:20:26.672Z,13.04
2023-03-29T20:22:57.986Z,12.97
2023-03-29T20:25:24.768Z,12.93
2023-03-29T20:27:51.430Z,12.92
2023-03-29T20:30:17.844Z,12.96
2023-03-29T20:32:44.474Z,12.94
2023-03-29T20:35:11.611Z,12.86
2023-03-29T20:37:38.110Z,12.78
2023-03-29T20:40:05.573Z,12.70
2023-03-29T20:42:34.309Z,12.60
2023-03-29T20:45:01.372Z,12.62
2023-03-29T20:47:29.425Z,12.63
2023-03-29T20:49:56.785Z,12.69
2023-03-29T20:52:24.043Z,12.77
2023-03-29T20:54:50.546Z,12.79
2023-03-29T20:57:19.918Z,12.84
2023-03-29T20:59:49.009Z,12.91
2023-03-29T21:02:21.442Z,12.91
2023-03-29T21:04:52.130Z,12.80
2023-03-29T21:07:19.961Z,12.68
2023-03-29T21:09:48.198Z,12.64
2023-03-29T21:12:14.595Z,12.65
2023-03-29T21:14:41.018Z,12.71
2023-03-29T21:17:09.276Z,12.77
2023-03-29T21:19:37.842Z,12.75
2023-03-29T21:22:04.989Z,12.69
2023-03-29T21:24:33.032Z,12.70
2023-03-29T21:27:00.499Z,12.70
2023-03-29T21:29:27.269Z,12.62
2023-03-29T21:31:54.239Z,12.63
2023-03-29T21:34:20.713Z,12.63
2023-03-29T21:36:47.215Z,12.62
2023-03-29T21:39:13.798Z,12.55
2023-03-29T21:41:40.275Z,12.52
2023-03-29T21:44:06.720Z,12.50
2023-03-29T21:46:33.214Z,12.52
2023-03-29T21:48:59.724Z,12.56
2023-03-29T21:51:27.256Z,12.54
2023-03-29T21:53:53.693Z,12.52
2023-03-29T21:56:20.302Z,12.48
2023-03-29T21:58:46.758Z,12.44
2023-03-29T22:01:13.202Z,12.42
2023-03-29T22:03:39.746Z,12.46
2023-03-29T22:06:09.328Z,12.41
2023-03-29T22:08:38.846Z,12.30
2023-03-29T22:11:13.922Z,12.30
2023-03-29T22:13:41.277Z,12.25
2023-03-29T22:16:09.242Z,12.25
2023-03-29T22:18:43.722Z,12.23
2023-03-29T22:21:12.246Z,12.16
2023-03-29T22:23:38.697Z,12.18
2023-03-29T22:26:11.145Z,12.20
2023-03-29T22:28:38.185Z,12.19
2023-03-29T22:31:06.595Z,12.09
2023-03-29T22:33:34.668Z,11.97
2023-03-29T22:36:02.478Z,11.88
2023-03-29T22:38:29.341Z,11.84
2023-03-29T22:40:55.840Z,11.74
2023-03-29T22:43:22.311Z,11.65
2023-03-29T22:45:49.303Z,11.63
2023-03-29T22:48:15.949Z,11.51
2023-03-29T22:50:42.887Z,11.42
2023-03-29T22:53:10.300Z,11.51
2023-03-29T22:55:37.208Z,11.63
2023-03-29T22:58:03.796Z,11.71
2023-03-29T23:00:31.217Z,11.70
2023-03-29T23:02:57.801Z,11.70
2023-03-29T23:05:24.327Z,11.64
2023-03-29T23:07:50.985Z,11.55
2023-03-29T23:10:17.526Z,11.44
2023-03-29T23:12:43.948Z,11.41
2023-03-29T23:15:11.331Z,11.52
2023-03-29T23:17:37.734Z,11.63
2023-03-29T23:20:08.369Z,11.50
2023-03-29T23:22:36.216Z,11.36
2023-03-29T23:25:02.663Z,11.34
2023-03-29T23:27:29.256Z,11.37
2023-03-29T23:29:56.212Z,11.41
2023-03-29T23:32:22.606Z,11.44
2023-03-29T23:34:48.986Z,11.51
2023-03-29T23:37:15.463Z,11.58
2023-03-29T23:39:41.900Z,11.60
2023-03-29T23:42:08.303Z,11.65
2023-03-29T23:44:34.730Z,11.64
2023-03-29T23:47:01.335Z,11.68
2023-03-29T23:49:28.102Z,11.67
2023-03-29T23:51:55.935Z,11.70
2023-03-29T23:54:22.566Z,11.63
2023-03-29T23:56:49.023Z,11.58
2023-03-29T23:59:15.434Z,11.62
